Route Details

Aircraft Information
Group: North America Fleet
Types: B738, B752, B762, B763
Route Data
Distance: 1144nm
Duration: 3h 04m
Origin METAR: KONT 072253Z VRB04KT 10SM FEW250 20/M02 A3020 RMK AO2 SLP221 T02001022
Dest. METAR: KMCI 072253Z 33007KT 10SM FEW250 09/M07 A3022 RMK AO2 SLP236 T00941072
Freight Data
(for Feb 7, 2023)
Load Factor:
37%
Manifested Cargo: 27,432lbs
Financial History
Total Freight: 98,298lbs
Average Load: 0lbs/flt
Fuel Used: 20,313lbs
Avg. Fuel Used: 0lbs/flt
Fuel Expense: $10,969
Avg. Fuel Expense: $0
Avg. Fuel Cost: $0/lbs
Total Gross Income: $250,660
Pilot Pay: $169
Total Expenses: $50,028
Total Revenue: $188,872
Average Revenue: $0

Capitol Logistics 437




KONT
Ontario International Airport
Ontario, California
KMCI
Kansas City International Airport
Kansas City, Missouri

Activity Log

Date Flight Route Aircraft Duration
07/18/2022 CPX437 RAJEE3 AVRRY LANCY J134 DRK CIM ICT EMP JHAWK6 B763 2h 33m